sensor_id;sensor_type;location;lat;lon;timestamp;temperature;humidity
26954;DHT22;14508;50.924;11.600;2022-12-11T00:00:54;0.30;99.90
26954;DHT22;14508;50.924;11.600;2022-12-11T00:03:22;0.20;99.90
26954;DHT22;14508;50.924;11.600;2022-12-11T00:05:50;0.20;99.90
26954;DHT22;14508;50.924;11.600;2022-12-11T00:08:18;0.20;99.90
26954;DHT22;14508;50.924;11.600;2022-12-11T00:10:46;0.20;99.90
26954;DHT22;14508;50.924;11.600;2022-12-11T00:13:15;0.20;99.90
26954;DHT22;14508;50.924;11.600;2022-12-11T00:15:44;0.20;99.90
26954;DHT22;14508;50.924;11.600;2022-12-11T00:18:12;0.20;99.90
26954;DHT22;14508;50.924;11.600;2022-12-11T00:20:40;0.30;99.90
26954;DHT22;14508;50.924;11.600;2022-12-11T00:23:09;0.30;99.90
26954;DHT22;14508;50.924;11.600;2022-12-11T00:25:40;0.30;99.90
26954;DHT22;14508;50.924;11.600;2022-12-11T00:28:09;0.30;99.90
26954;DHT22;14508;50.924;11.600;2022-12-11T00:30:38;0.30;99.90
26954;DHT22;14508;50.924;11.600;2022-12-11T00:33:10;0.40;99.90
26954;DHT22;14508;50.924;11.600;2022-12-11T00:35:40;0.40;99.90
26954;DHT22;14508;50.924;11.600;2022-12-11T00:38:13;0.40;99.90
26954;DHT22;14508;50.924;11.600;2022-12-11T00:40:42;0.40;99.90
26954;DHT22;14508;50.924;11.600;2022-12-11T00:43:10;0.40;99.90
26954;DHT22;14508;50.924;11.600;2022-12-11T00:45:40;0.40;99.90
26954;DHT22;14508;50.924;11.600;2022-12-11T00:48:10;0.40;99.90
26954;DHT22;14508;50.924;11.600;2022-12-11T00:50:39;0.40;99.90
26954;DHT22;14508;50.924;11.600;2022-12-11T00:53:07;0.30;99.90
26954;DHT22;14508;50.924;11.600;2022-12-11T00:55:36;0.40;99.90
26954;DHT22;14508;50.924;11.600;2022-12-11T00:58:06;0.40;99.90
26954;DHT22;14508;50.924;11.600;2022-12-11T01:00:35;0.40;99.90
26954;DHT22;14508;50.924;11.600;2022-12-11T01:03:03;0.40;99.90
26954;DHT22;14508;50.924;11.600;2022-12-11T01:05:33;0.40;99.90
26954;DHT22;14508;50.924;11.600;2022-12-11T01:08:02;0.40;99.90
26954;DHT22;14508;50.924;11.600;2022-12-11T01:10:30;0.40;99.90
26954;DHT22;14508;50.924;11.600;2022-12-11T01:12:59;0.40;99.90
26954;DHT22;14508;50.924;11.600;2022-12-11T01:15:28;0.40;99.90
26954;DHT22;14508;50.924;11.600;2022-12-11T01:17:57;0.40;99.90
26954;DHT22;14508;50.924;11.600;2022-12-11T01:20:26;0.40;99.90
26954;DHT22;14508;50.924;11.600;2022-12-11T01:22:57;0.40;99.90
26954;DHT22;14508;50.924;11.600;2022-12-11T01:25:27;0.30;99.90
26954;DHT22;14508;50.924;11.600;2022-12-11T01:27:55;0.30;99.90
26954;DHT22;14508;50.924;11.600;2022-12-11T01:30:24;0.30;99.90
26954;DHT22;14508;50.924;11.600;2022-12-11T01:32:52;0.30;99.90
26954;DHT22;14508;50.924;11.600;2022-12-11T01:35:21;0.30;99.90
26954;DHT22;14508;50.924;11.600;2022-12-11T01:37:49;0.30;99.90
26954;DHT22;14508;50.924;11.600;2022-12-11T01:40:19;0.30;99.90
26954;DHT22;14508;50.924;11.600;2022-12-11T01:42:47;0.20;99.90
26954;DHT22;14508;50.924;11.600;2022-12-11T01:45:28;0.20;99.90
26954;DHT22;14508;50.924;11.600;2022-12-11T01:48:01;0.20;99.90
26954;DHT22;14508;50.924;11.600;2022-12-11T01:50:33;0.10;99.90
26954;DHT22;14508;50.924;11.600;2022-12-11T01:53:03;0.20;99.90
26954;DHT22;14508;50.924;11.600;2022-12-11T01:55:36;0.20;99.90
26954;DHT22;14508;50.924;11.600;2022-12-11T01:58:05;0.30;99.90
26954;DHT22;14508;50.924;11.600;2022-12-11T02:00:33;0.30;99.90
26954;DHT22;14508;50.924;11.600;2022-12-11T02:03:02;0.30;99.90
26954;DHT22;14508;50.924;11.600;2022-12-11T02:05:30;0.30;99.90
26954;DHT22;14508;50.924;11.600;2022-12-11T02:07:59;0.30;99.90
26954;DHT22;14508;50.924;11.600;2022-12-11T02:10:41;0.30;99.90
26954;DHT22;14508;50.924;11.600;2022-12-11T02:13:13;0.30;99.90
26954;DHT22;14508;50.924;11.600;2022-12-11T02:15:48;0.30;99.90
26954;DHT22;14508;50.924;11.600;2022-12-11T02:18:24;0.30;99.90
26954;DHT22;14508;50.924;11.600;2022-12-11T02:21:01;0.20;99.90
26954;DHT22;14508;50.924;11.600;2022-12-11T02:24:12;0.20;99.90
26954;DHT22;14508;50.924;11.600;2022-12-11T02:27:15;0.10;99.90
26954;DHT22;14508;50.924;11.600;2022-12-11T02:29:49;0.10;99.90
26954;DHT22;14508;50.924;11.600;2022-12-11T02:32:21;0.10;99.90
26954;DHT22;14508;50.924;11.600;2022-12-11T02:34:55;0.20;99.90
26954;DHT22;14508;50.924;11.600;2022-12-11T02:37:26;0.20;99.90
26954;DHT22;14508;50.924;11.600;2022-12-11T02:39:56;0.20;99.90
26954;DHT22;14508;50.924;11.600;2022-12-11T02:42:27;0.20;99.90
26954;DHT22;14508;50.924;11.600;2022-12-11T02:44:59;0.20;99.90
26954;DHT22;14508;50.924;11.600;2022-12-11T02:47:29;0.20;99.90
26954;DHT22;14508;50.924;11.600;2022-12-11T02:50:00;0.20;99.90
26954;DHT22;14508;50.924;11.600;2022-12-11T02:52:30;0.30;99.90
26954;DHT22;14508;50.924;11.600;2022-12-11T02:55:01;0.30;99.90
26954;DHT22;14508;50.924;11.600;2022-12-11T02:57:33;0.30;99.90
26954;DHT22;14508;50.924;11.600;2022-12-11T03:00:06;0.30;99.90
26954;DHT22;14508;50.924;11.600;2022-12-11T03:02:35;0.30;99.90
26954;DHT22;14508;50.924;11.600;2022-12-11T03:05:04;0.30;99.90
26954;DHT22;14508;50.924;11.600;2022-12-11T03:07:34;0.30;99.90
26954;DHT22;14508;50.924;11.600;2022-12-11T03:10:05;0.30;99.90
26954;DHT22;14508;50.924;11.600;2022-12-11T03:12:36;0.40;99.90
26954;DHT22;14508;50.924;11.600;2022-12-11T03:15:09;0.30;99.90
26954;DHT22;14508;50.924;11.600;2022-12-11T03:17:45;0.30;99.90
26954;DHT22;14508;50.924;11.600;2022-12-11T03:20:21;0.30;99.90
26954;DHT22;14508;50.924;11.600;2022-12-11T03:22:57;0.30;99.90
26954;DHT22;14508;50.924;11.600;2022-12-11T03:25:32;0.20;99.90
26954;DHT22;14508;50.924;11.600;2022-12-11T03:28:07;0.30;99.90
26954;DHT22;14508;50.924;11.600;2022-12-11T03:30:39;0.30;99.90
26954;DHT22;14508;50.924;11.600;2022-12-11T03:33:10;0.30;99.90
26954;DHT22;14508;50.924;11.600;2022-12-11T03:35:43;0.30;99.90
26954;DHT22;14508;50.924;11.600;2022-12-11T03:38:16;0.20;99.90
26954;DHT22;14508;50.924;11.600;2022-12-11T03:40:47;0.20;99.90
26954;DHT22;14508;50.924;11.600;2022-12-11T03:43:18;0.20;99.90
26954;DHT22;14508;50.924;11.600;2022-12-11T03:45:48;0.20;99.90
26954;DHT22;14508;50.924;11.600;2022-12-11T03:48:18;0.20;99.90
26954;DHT22;14508;50.924;11.600;2022-12-11T03:50:47;0.20;99.90
26954;DHT22;14508;50.924;11.600;2022-12-11T03:53:16;0.20;99.90
26954;DHT22;14508;50.924;11.600;2022-12-11T03:55:45;0.10;99.90
26954;DHT22;14508;50.924;11.600;2022-12-11T03:58:15;0.10;99.90
26954;DHT22;14508;50.924;11.600;2022-12-11T04:00:43;0.10;99.90
26954;DHT22;14508;50.924;11.600;2022-12-11T04:03:12;0.20;99.90
26954;DHT22;14508;50.924;11.600;2022-12-11T04:05:41;0.20;99.90
26954;DHT22;14508;50.924;11.600;2022-12-11T04:08:09;0.20;99.90
26954;DHT22;14508;50.924;11.600;2022-12-11T04:10:38;0.20;99.90
26954;DHT22;14508;50.924;11.600;2022-12-11T04:13:07;0.20;99.90
26954;DHT22;14508;50.924;11.600;2022-12-11T04:15:36;0.10;99.90
26954;DHT22;14508;50.924;11.600;2022-12-11T04:18:04;0.10;99.90
26954;DHT22;14508;50.924;11.600;2022-12-11T04:20:53;0.00;99.90
26954;DHT22;14508;50.924;11.600;2022-12-11T04:23:50;0.00;99.90
26954;DHT22;14508;50.924;11.600;2022-12-11T04:26:36;0.00;99.90
26954;DHT22;14508;50.924;11.600;2022-12-11T04:29:04;0.00;99.90
26954;DHT22;14508;50.924;11.600;2022-12-11T04:31:32;0.10;99.90
26954;DHT22;14508;50.924;11.600;2022-12-11T04:34:00;0.00;99.90
26954;DHT22;14508;50.924;11.600;2022-12-11T04:36:29;0.00;99.90
26954;DHT22;14508;50.924;11.600;2022-12-11T04:38:57;-0.10;99.90
26954;DHT22;14508;50.924;11.600;2022-12-11T04:41:25;-0.10;99.90
26954;DHT22;14508;50.924;11.600;2022-12-11T04:43:53;0.00;99.90
26954;DHT22;14508;50.924;11.600;2022-12-11T04:46:22;0.00;99.90
26954;DHT22;14508;50.924;11.600;2022-12-11T04:48:51;0.00;99.90
26954;DHT22;14508;50.924;11.600;2022-12-11T04:51:24;0.00;99.90
26954;DHT22;14508;50.924;11.600;2022-12-11T04:53:53;0.00;99.90
26954;DHT22;14508;50.924;11.600;2022-12-11T04:56:21;0.00;99.90
26954;DHT22;14508;50.924;11.600;2022-12-11T04:58:49;0.10;99.90
26954;DHT22;14508;50.924;11.600;2022-12-11T05:01:19;0.10;99.90
26954;DHT22;14508;50.924;11.600;2022-12-11T05:03:48;0.10;99.90
26954;DHT22;14508;50.924;11.600;2022-12-11T05:06:16;0.10;99.90
26954;DHT22;14508;50.924;11.600;2022-12-11T05:08:44;0.20;99.90
26954;DHT22;14508;50.924;11.600;2022-12-11T05:11:14;0.20;99.90
26954;DHT22;14508;50.924;11.600;2022-12-11T05:13:43;0.20;99.90
26954;DHT22;14508;50.924;11.600;2022-12-11T05:16:13;0.20;99.90
26954;DHT22;14508;50.924;11.600;2022-12-11T05:18:41;0.20;99.90
26954;DHT22;14508;50.924;11.600;2022-12-11T05:21:11;0.10;99.90
26954;DHT22;14508;50.924;11.600;2022-12-11T05:23:39;0.10;99.90
26954;DHT22;14508;50.924;11.600;2022-12-11T05:26:11;0.10;99.90
26954;DHT22;14508;50.924;11.600;2022-12-11T05:28:40;0.10;99.90
26954;DHT22;14508;50.924;11.600;2022-12-11T05:31:12;0.20;99.90
26954;DHT22;14508;50.924;11.600;2022-12-11T05:33:40;0.10;99.90
26954;DHT22;14508;50.924;11.600;2022-12-11T05:36:14;0.10;99.90
26954;DHT22;14508;50.924;11.600;2022-12-11T05:38:43;0.00;99.90
26954;DHT22;14508;50.924;11.600;2022-12-11T05:41:13;0.00;99.90
26954;DHT22;14508;50.924;11.600;2022-12-11T05:43:42;0.10;99.90
26954;DHT22;14508;50.924;11.600;2022-12-11T05:46:12;0.00;99.90
26954;DHT22;14508;50.924;11.600;2022-12-11T05:48:41;0.00;99.90
26954;DHT22;14508;50.924;11.600;2022-12-11T05:51:09;0.00;99.90
26954;DHT22;14508;50.924;11.600;2022-12-11T05:53:39;0.00;99.90
26954;DHT22;14508;50.924;11.600;2022-12-11T05:56:09;-0.10;99.90
26954;DHT22;14508;50.924;11.600;2022-12-11T05:58:38;0.00;99.90
26954;DHT22;14508;50.924;11.600;2022-12-11T06:01:10;-0.10;99.90
26954;DHT22;14508;50.924;11.600;2022-12-11T06:03:38;0.00;99.90
26954;DHT22;14508;50.924;11.600;2022-12-11T06:06:06;0.00;99.90
26954;DHT22;14508;50.924;11.600;2022-12-11T06:08:34;-0.10;99.90
26954;DHT22;14508;50.924;11.600;2022-12-11T06:11:03;-0.10;99.90
26954;DHT22;14508;50.924;11.600;2022-12-11T06:13:31;-0.10;99.90
26954;DHT22;14508;50.924;11.600;2022-12-11T06:15:59;-0.10;99.90
26954;DHT22;14508;50.924;11.600;2022-12-11T06:18:31;-0.10;99.90
26954;DHT22;14508;50.924;11.600;2022-12-11T06:21:10;-0.20;99.90
26954;DHT22;14508;50.924;11.600;2022-12-11T06:23:38;-0.20;99.90
26954;DHT22;14508;50.924;11.600;2022-12-11T06:26:07;-0.20;99.90
26954;DHT22;14508;50.924;11.600;2022-12-11T06:28:35;-0.20;99.90
26954;DHT22;14508;50.924;11.600;2022-12-11T06:31:03;-0.30;99.90
26954;DHT22;14508;50.924;11.600;2022-12-11T06:33:34;-0.30;99.90
26954;DHT22;14508;50.924;11.600;2022-12-11T06:36:02;-0.40;99.90
26954;DHT22;14508;50.924;11.600;2022-12-11T06:38:31;-0.40;99.90
26954;DHT22;14508;50.924;11.600;2022-12-11T06:41:00;-0.40;99.90
26954;DHT22;14508;50.924;11.600;2022-12-11T06:43:30;-0.40;99.90
26954;DHT22;14508;50.924;11.600;2022-12-11T06:45:58;-0.30;99.90
26954;DHT22;14508;50.924;11.600;2022-12-11T06:48:30;-0.30;99.90
26954;DHT22;14508;50.924;11.600;2022-12-11T06:51:04;-0.30;99.90
26954;DHT22;14508;50.924;11.600;2022-12-11T06:53:32;-0.20;99.90
26954;DHT22;14508;50.924;11.600;2022-12-11T06:56:01;-0.20;99.90
26954;DHT22;14508;50.924;11.600;2022-12-11T06:58:30;-0.20;99.90
26954;DHT22;14508;50.924;11.600;2022-12-11T07:00:58;-0.10;99.90
26954;DHT22;14508;50.924;11.600;2022-12-11T07:03:26;-0.10;99.90
26954;DHT22;14508;50.924;11.600;2022-12-11T07:06:00;-0.10;99.90
26954;DHT22;14508;50.924;11.600;2022-12-11T07:08:28;-0.10;99.90
26954;DHT22;14508;50.924;11.600;2022-12-11T07:11:02;-0.10;99.90
26954;DHT22;14508;50.924;11.600;2022-12-11T07:13:30;-0.10;99.90
26954;DHT22;14508;50.924;11.600;2022-12-11T07:15:59;-0.10;99.90
26954;DHT22;14508;50.924;11.600;2022-12-11T07:18:27;0.00;99.90
26954;DHT22;14508;50.924;11.600;2022-12-11T07:20:56;0.00;99.90
26954;DHT22;14508;50.924;11.600;2022-12-11T07:23:26;0.00;99.90
26954;DHT22;14508;50.924;11.600;2022-12-11T07:25:55;0.00;99.90
26954;DHT22;14508;50.924;11.600;2022-12-11T07:28:23;0.00;99.90
26954;DHT22;14508;50.924;11.600;2022-12-11T07:30:52;0.00;99.90
26954;DHT22;14508;50.924;11.600;2022-12-11T07:33:20;0.00;99.90
26954;DHT22;14508;50.924;11.600;2022-12-11T07:35:48;0.00;99.90
26954;DHT22;14508;50.924;11.600;2022-12-11T07:38:16;0.00;99.90
26954;DHT22;14508;50.924;11.600;2022-12-11T07:40:45;0.00;99.90
26954;DHT22;14508;50.924;11.600;2022-12-11T07:43:13;0.00;99.90
26954;DHT22;14508;50.924;11.600;2022-12-11T07:45:41;0.00;99.90
26954;DHT22;14508;50.924;11.600;2022-12-11T07:48:09;0.10;99.90
26954;DHT22;14508;50.924;11.600;2022-12-11T07:50:38;0.00;99.90
26954;DHT22;14508;50.924;11.600;2022-12-11T07:53:06;0.00;99.90
26954;DHT22;14508;50.924;11.600;2022-12-11T07:55:34;0.00;99.90
26954;DHT22;14508;50.924;11.600;2022-12-11T07:58:03;0.00;99.90
26954;DHT22;14508;50.924;11.600;2022-12-11T08:00:31;0.00;99.90
26954;DHT22;14508;50.924;11.600;2022-12-11T08:02:59;0.00;99.90
26954;DHT22;14508;50.924;11.600;2022-12-11T08:05:27;0.00;99.90
26954;DHT22;14508;50.924;11.600;2022-12-11T08:07:56;0.00;99.90
26954;DHT22;14508;50.924;11.600;2022-12-11T08:10:25;0.00;99.90
26954;DHT22;14508;50.924;11.600;2022-12-11T08:12:53;0.00;99.90
26954;DHT22;14508;50.924;11.600;2022-12-11T08:15:22;0.00;99.90
26954;DHT22;14508;50.924;11.600;2022-12-11T08:17:50;0.00;99.90
26954;DHT22;14508;50.924;11.600;2022-12-11T08:20:18;0.00;99.90
26954;DHT22;14508;50.924;11.600;2022-12-11T08:22:46;0.00;99.90
26954;DHT22;14508;50.924;11.600;2022-12-11T08:25:14;-0.10;99.90
26954;DHT22;14508;50.924;11.600;2022-12-11T08:27:41;0.00;99.90
26954;DHT22;14508;50.924;11.600;2022-12-11T08:30:11;0.00;99.90
26954;DHT22;14508;50.924;11.600;2022-12-11T08:32:40;0.10;99.90
26954;DHT22;14508;50.924;11.600;2022-12-11T08:35:08;0.00;99.90
26954;DHT22;14508;50.924;11.600;2022-12-11T08:37:37;0.00;99.90
26954;DHT22;14508;50.924;11.600;2022-12-11T08:40:07;0.00;99.90
26954;DHT22;14508;50.924;11.600;2022-12-11T08:42:36;0.00;99.90
26954;DHT22;14508;50.924;11.600;2022-12-11T08:45:05;0.00;99.90
26954;DHT22;14508;50.924;11.600;2022-12-11T08:47:34;-0.10;99.90
26954;DHT22;14508;50.924;11.600;2022-12-11T08:50:04;0.00;99.90
26954;DHT22;14508;50.924;11.600;2022-12-11T08:52:33;0.00;99.90
26954;DHT22;14508;50.924;11.600;2022-12-11T08:55:02;0.10;99.90
26954;DHT22;14508;50.924;11.600;2022-12-11T08:57:30;0.00;99.90
26954;DHT22;14508;50.924;11.600;2022-12-11T08:59:58;0.00;99.90
26954;DHT22;14508;50.924;11.600;2022-12-11T09:02:26;0.10;99.90
26954;DHT22;14508;50.924;11.600;2022-12-11T09:04:54;0.00;99.90
26954;DHT22;14508;50.924;11.600;2022-12-11T09:07:23;0.10;99.90
26954;DHT22;14508;50.924;11.600;2022-12-11T09:09:53;0.10;99.90
26954;DHT22;14508;50.924;11.600;2022-12-11T09:12:21;0.20;99.90
26954;DHT22;14508;50.924;11.600;2022-12-11T09:14:49;0.20;99.90
26954;DHT22;14508;50.924;11.600;2022-12-11T09:17:17;0.20;99.90
26954;DHT22;14508;50.924;11.600;2022-12-11T09:19:45;0.20;99.90
26954;DHT22;14508;50.924;11.600;2022-12-11T09:22:13;0.20;99.90
26954;DHT22;14508;50.924;11.600;2022-12-11T09:24:42;0.20;99.90
26954;DHT22;14508;50.924;11.600;2022-12-11T09:27:10;0.20;99.90
26954;DHT22;14508;50.924;11.600;2022-12-11T09:29:39;0.20;99.90
26954;DHT22;14508;50.924;11.600;2022-12-11T09:32:07;0.30;99.90
26954;DHT22;14508;50.924;11.600;2022-12-11T09:34:35;0.30;99.90
26954;DHT22;14508;50.924;11.600;2022-12-11T09:37:03;0.20;99.90
26954;DHT22;14508;50.924;11.600;2022-12-11T09:39:31;0.30;99.90
26954;DHT22;14508;50.924;11.600;2022-12-11T09:42:03;0.40;99.90
26954;DHT22;14508;50.924;11.600;2022-12-11T09:44:39;0.60;99.90
26954;DHT22;14508;50.924;11.600;2022-12-11T09:47:18;0.60;99.90
26954;DHT22;14508;50.924;11.600;2022-12-11T09:49:50;0.70;99.90
26954;DHT22;14508;50.924;11.600;2022-12-11T09:52:25;0.70;99.90
26954;DHT22;14508;50.924;11.600;2022-12-11T09:55:00;0.80;99.90
26954;DHT22;14508;50.924;11.600;2022-12-11T09:57:41;0.70;99.90
26954;DHT22;14508;50.924;11.600;2022-12-11T10:00:20;0.60;99.90
26954;DHT22;14508;50.924;11.600;2022-12-11T10:06:14;0.50;99.90
26954;DHT22;14508;50.924;11.600;2022-12-11T10:08:49;0.50;99.90
26954;DHT22;14508;50.924;11.600;2022-12-11T10:11:37;0.50;99.90
26954;DHT22;14508;50.924;11.600;2022-12-11T10:14:17;0.50;99.90
26954;DHT22;14508;50.924;11.600;2022-12-11T10:16:51;0.60;99.90
26954;DHT22;14508;50.924;11.600;2022-12-11T10:19:25;0.60;99.90
26954;DHT22;14508;50.924;11.600;2022-12-11T10:21:54;0.70;99.90
26954;DHT22;14508;50.924;11.600;2022-12-11T10:24:27;0.70;99.90
26954;DHT22;14508;50.924;11.600;2022-12-11T10:27:18;0.70;99.90
26954;DHT22;14508;50.924;11.600;2022-12-11T10:29:53;0.70;99.90
26954;DHT22;14508;50.924;11.600;2022-12-11T10:32:25;0.70;99.90
26954;DHT22;14508;50.924;11.600;2022-12-11T10:35:00;0.70;99.90
26954;DHT22;14508;50.924;11.600;2022-12-11T10:37:29;0.70;99.90
26954;DHT22;14508;50.924;11.600;2022-12-11T10:39:57;0.70;99.90
26954;DHT22;14508;50.924;11.600;2022-12-11T10:42:25;0.60;99.90
26954;DHT22;14508;50.924;11.600;2022-12-11T10:44:59;0.60;99.90
26954;DHT22;14508;50.924;11.600;2022-12-11T10:47:28;0.60;99.90
26954;DHT22;14508;50.924;11.600;2022-12-11T10:49:59;0.50;99.90
26954;DHT22;14508;50.924;11.600;2022-12-11T10:52:31;0.50;99.90
26954;DHT22;14508;50.924;11.600;2022-12-11T10:55:02;0.60;99.90
26954;DHT22;14508;50.924;11.600;2022-12-11T10:57:33;0.60;99.90
26954;DHT22;14508;50.924;11.600;2022-12-11T11:00:05;0.50;99.90
26954;DHT22;14508;50.924;11.600;2022-12-11T11:02:36;0.50;99.90
26954;DHT22;14508;50.924;11.600;2022-12-11T11:05:13;0.50;99.90
26954;DHT22;14508;50.924;11.600;2022-12-11T11:07:42;0.60;99.90
26954;DHT22;14508;50.924;11.600;2022-12-11T11:10:15;0.60;99.90
26954;DHT22;14508;50.924;11.600;2022-12-11T11:12:46;0.60;99.90
26954;DHT22;14508;50.924;11.600;2022-12-11T11:15:18;0.60;99.90
26954;DHT22;14508;50.924;11.600;2022-12-11T11:17:49;0.60;99.90
26954;DHT22;14508;50.924;11.600;2022-12-11T11:20:24;0.60;99.90
26954;DHT22;14508;50.924;11.600;2022-12-11T11:22:53;0.60;99.90
26954;DHT22;14508;50.924;11.600;2022-12-11T11:25:23;0.60;99.90
26954;DHT22;14508;50.924;11.600;2022-12-11T11:27:53;0.60;99.90
26954;DHT22;14508;50.924;11.600;2022-12-11T11:30:24;0.60;99.90
26954;DHT22;14508;50.924;11.600;2022-12-11T11:32:54;0.60;99.90
26954;DHT22;14508;50.924;11.600;2022-12-11T11:35:26;0.60;99.90
26954;DHT22;14508;50.924;11.600;2022-12-11T11:37:59;0.60;99.90
26954;DHT22;14508;50.924;11.600;2022-12-11T11:40:30;0.60;99.90
26954;DHT22;14508;50.924;11.600;2022-12-11T11:43:06;0.60;99.90
26954;DHT22;14508;50.924;11.600;2022-12-11T11:45:44;0.50;99.90
26954;DHT22;14508;50.924;11.600;2022-12-11T11:48:24;0.40;99.90
26954;DHT22;14508;50.924;11.600;2022-12-11T11:50:55;0.40;99.90
26954;DHT22;14508;50.924;11.600;2022-12-11T11:53:29;0.50;99.90
26954;DHT22;14508;50.924;11.600;2022-12-11T11:56:04;0.50;99.90
26954;DHT22;14508;50.924;11.600;2022-12-11T11:58:40;0.40;99.90
26954;DHT22;14508;50.924;11.600;2022-12-11T12:01:14;0.30;99.90
26954;DHT22;14508;50.924;11.600;2022-12-11T12:03:43;0.30;99.90
26954;DHT22;14508;50.924;11.600;2022-12-11T12:06:30;0.30;99.90
26954;DHT22;14508;50.924;11.600;2022-12-11T12:09:09;0.10;99.90
26954;DHT22;14508;50.924;11.600;2022-12-11T12:11:43;0.10;99.90
26954;DHT22;14508;50.924;11.600;2022-12-11T12:14:17;0.10;99.90
26954;DHT22;14508;50.924;11.600;2022-12-11T12:17:15;0.10;99.90
26954;DHT22;14508;50.924;11.600;2022-12-11T12:19:52;0.10;99.90
26954;DHT22;14508;50.924;11.600;2022-12-11T12:22:32;0.10;99.90
26954;DHT22;14508;50.924;11.600;2022-12-11T12:25:14;0.10;99.90
26954;DHT22;14508;50.924;11.600;2022-12-11T12:27:49;0.10;99.90
26954;DHT22;14508;50.924;11.600;2022-12-11T12:30:20;0.00;99.90
26954;DHT22;14508;50.924;11.600;2022-12-11T12:33:04;0.00;99.90
26954;DHT22;14508;50.924;11.600;2022-12-11T12:35:41;0.00;99.90
26954;DHT22;14508;50.924;11.600;2022-12-11T12:38:14;0.00;99.90
26954;DHT22;14508;50.924;11.600;2022-12-11T12:40:53;0.00;99.90
26954;DHT22;14508;50.924;11.600;2022-12-11T12:43:36;-0.10;99.90
26954;DHT22;14508;50.924;11.600;2022-12-11T12:46:18;-0.20;99.90
26954;DHT22;14508;50.924;11.600;2022-12-11T12:48:50;-0.10;99.90
26954;DHT22;14508;50.924;11.600;2022-12-11T12:51:19;-0.10;99.90
26954;DHT22;14508;50.924;11.600;2022-12-11T12:53:51;0.00;99.90
26954;DHT22;14508;50.924;11.600;2022-12-11T12:56:21;-0.10;99.90
26954;DHT22;14508;50.924;11.600;2022-12-11T12:58:49;0.00;99.90
26954;DHT22;14508;50.924;11.600;2022-12-11T13:01:19;0.00;99.90
26954;DHT22;14508;50.924;11.600;2022-12-11T13:03:53;-0.10;99.90
26954;DHT22;14508;50.924;11.600;2022-12-11T13:06:29;-0.10;99.90
26954;DHT22;14508;50.924;11.600;2022-12-11T13:09:11;0.00;99.90
26954;DHT22;14508;50.924;11.600;2022-12-11T13:11:40;-0.10;99.90
26954;DHT22;14508;50.924;11.600;2022-12-11T13:14:23;-0.10;99.90
26954;DHT22;14508;50.924;11.600;2022-12-11T13:19:49;-0.10;99.90
26954;DHT22;14508;50.924;11.600;2022-12-11T13:22:23;-0.10;99.90
26954;DHT22;14508;50.924;11.600;2022-12-11T13:24:57;0.00;99.90
26954;DHT22;14508;50.924;11.600;2022-12-11T13:27:36;0.00;99.90
26954;DHT22;14508;50.924;11.600;2022-12-11T13:30:07;0.00;99.90
26954;DHT22;14508;50.924;11.600;2022-12-11T13:32:53;0.00;99.90
26954;DHT22;14508;50.924;11.600;2022-12-11T13:35:23;0.00;99.90
26954;DHT22;14508;50.924;11.600;2022-12-11T13:37:52;-0.10;99.90
26954;DHT22;14508;50.924;11.600;2022-12-11T13:40:24;-0.10;99.90
26954;DHT22;14508;50.924;11.600;2022-12-11T13:42:55;-0.20;99.90
26954;DHT22;14508;50.924;11.600;2022-12-11T13:45:26;-0.30;99.90
26954;DHT22;14508;50.924;11.600;2022-12-11T13:47:56;-0.30;99.90
26954;DHT22;14508;50.924;11.600;2022-12-11T13:50:29;-0.30;99.90
26954;DHT22;14508;50.924;11.600;2022-12-11T13:52:59;-0.20;99.90
26954;DHT22;14508;50.924;11.600;2022-12-11T13:55:30;-0.20;99.90
26954;DHT22;14508;50.924;11.600;2022-12-11T13:57:58;-0.10;99.90
26954;DHT22;14508;50.924;11.600;2022-12-11T14:00:28;-0.10;99.90
26954;DHT22;14508;50.924;11.600;2022-12-11T14:03:00;-0.10;99.90
26954;DHT22;14508;50.924;11.600;2022-12-11T14:05:34;0.00;99.90
26954;DHT22;14508;50.924;11.600;2022-12-11T14:08:06;0.00;99.90
26954;DHT22;14508;50.924;11.600;2022-12-11T14:10:36;0.00;99.90
26954;DHT22;14508;50.924;11.600;2022-12-11T14:13:06;0.10;99.90
26954;DHT22;14508;50.924;11.600;2022-12-11T14:15:41;0.10;99.90
26954;DHT22;14508;50.924;11.600;2022-12-11T14:18:14;0.10;99.90
26954;DHT22;14508;50.924;11.600;2022-12-11T14:20:52;0.10;99.90
26954;DHT22;14508;50.924;11.600;2022-12-11T14:23:23;0.10;99.90
26954;DHT22;14508;50.924;11.600;2022-12-11T14:25:52;0.10;99.90
26954;DHT22;14508;50.924;11.600;2022-12-11T14:28:20;0.10;99.90
26954;DHT22;14508;50.924;11.600;2022-12-11T14:30:55;0.10;99.90
26954;DHT22;14508;50.924;11.600;2022-12-11T14:33:27;0.10;99.90
26954;DHT22;14508;50.924;11.600;2022-12-11T14:35:59;0.00;99.90
26954;DHT22;14508;50.924;11.600;2022-12-11T14:38:33;-0.10;99.90
26954;DHT22;14508;50.924;11.600;2022-12-11T14:41:06;-0.20;99.90
26954;DHT22;14508;50.924;11.600;2022-12-11T14:43:42;-0.20;99.90
26954;DHT22;14508;50.924;11.600;2022-12-11T14:46:16;-0.20;99.90
26954;DHT22;14508;50.924;11.600;2022-12-11T14:48:48;-0.30;99.90
26954;DHT22;14508;50.924;11.600;2022-12-11T14:51:30;-0.30;99.90
26954;DHT22;14508;50.924;11.600;2022-12-11T14:54:01;-0.20;99.90
26954;DHT22;14508;50.924;11.600;2022-12-11T14:56:30;-0.20;99.90
26954;DHT22;14508;50.924;11.600;2022-12-11T14:59:01;-0.20;99.90
26954;DHT22;14508;50.924;11.600;2022-12-11T15:01:32;-0.20;99.90
26954;DHT22;14508;50.924;11.600;2022-12-11T15:04:01;-0.20;99.90
26954;DHT22;14508;50.924;11.600;2022-12-11T15:06:32;-0.20;99.90
26954;DHT22;14508;50.924;11.600;2022-12-11T15:09:23;-0.20;99.90
26954;DHT22;14508;50.924;11.600;2022-12-11T15:11:54;-0.20;99.90
26954;DHT22;14508;50.924;11.600;2022-12-11T15:14:23;-0.20;99.90
26954;DHT22;14508;50.924;11.600;2022-12-11T15:16:53;-0.30;99.90
26954;DHT22;14508;50.924;11.600;2022-12-11T15:19:25;-0.30;99.90
26954;DHT22;14508;50.924;11.600;2022-12-11T15:22:02;-0.20;99.90
26954;DHT22;14508;50.924;11.600;2022-12-11T15:24:35;-0.20;99.90
26954;DHT22;14508;50.924;11.600;2022-12-11T15:27:05;-0.20;99.90
26954;DHT22;14508;50.924;11.600;2022-12-11T15:29:35;-0.40;99.90
26954;DHT22;14508;50.924;11.600;2022-12-11T15:32:15;-0.50;99.90
26954;DHT22;14508;50.924;11.600;2022-12-11T15:34:46;-0.60;99.90
26954;DHT22;14508;50.924;11.600;2022-12-11T15:37:24;-0.60;99.90
26954;DHT22;14508;50.924;11.600;2022-12-11T15:39:53;-0.70;99.90
26954;DHT22;14508;50.924;11.600;2022-12-11T15:42:24;-0.70;99.90
26954;DHT22;14508;50.924;11.600;2022-12-11T15:44:53;-0.60;99.90
26954;DHT22;14508;50.924;11.600;2022-12-11T15:47:24;-0.60;99.90
26954;DHT22;14508;50.924;11.600;2022-12-11T15:49:53;-0.50;99.90
26954;DHT22;14508;50.924;11.600;2022-12-11T15:52:23;-0.60;99.90
26954;DHT22;14508;50.924;11.600;2022-12-11T15:54:51;-0.50;99.90
26954;DHT22;14508;50.924;11.600;2022-12-11T15:57:21;-0.60;99.90
26954;DHT22;14508;50.924;11.600;2022-12-11T15:59:51;-0.60;99.90